Time;durP1;ratioP1;P1;durP2;ratioP2;P2;SDS_P1;SDS_P2;PMS_P1;PMS_P2;Temp;Humidity;BMP_temperature;BMP_pressure;BME280_temperature;BME280_humidity;BME280_pressure;Samples;Min_cycle;Max_cycle;Signal;HPM_P1;HPM_P2
2021/08/04 00:02:05;;;;;;;1999.90;999.90;;;;;;;19.97;69.64;100846.13;15645623;28;20041;-59
2021/08/04 00:09:37;;;;;;;1999.90;999.90;;;;;;;19.91;70.19;100853.41;15678563;28;20049;-59
2021/08/04 00:17:10;;;;;;;1999.90;999.90;;;;;;;19.88;70.46;100857.81;15676239;28;20094;-59
2021/08/04 00:24:44;;;;;;;1999.90;999.90;;;;;;;19.93;70.16;100853.00;15676908;28;20453;-59
2021/08/04 00:32:19;;;;;;;1999.90;999.90;;;;;;;19.90;70.03;100854.56;15672998;28;20420;-59
2021/08/04 00:39:52;;;;;;;1999.90;999.90;;;;;;;19.83;69.25;100860.22;15672817;28;20036;-59
2021/08/04 00:47:26;;;;;;;1999.90;999.90;;;;;;;19.84;69.99;100851.31;15675684;28;20045;-58
2021/08/04 00:54:58;;;;;;;1999.90;999.90;;;;;;;19.79;70.27;100856.50;15675460;28;20072;-56
2021/08/04 01:02:38;;;;;;;1999.90;999.90;;;;;;;19.59;70.90;100856.78;15662508;28;20532;-58
2021/08/04 01:10:16;;;;;;;1999.90;999.90;;;;;;;19.58;71.14;100843.81;15658018;28;20037;-59
2021/08/04 01:17:52;;;;;;;1999.90;999.90;;;;;;;19.76;70.88;100854.47;15663879;28;20198;-57
2021/08/04 01:25:31;;;;;;;1999.90;999.90;;;;;;;19.61;71.17;100850.72;15663034;28;20047;-58
2021/08/04 01:33:05;;;;;;;1999.90;999.90;;;;;;;19.37;72.91;100854.09;15652730;28;20041;-59
2021/08/04 01:40:38;;;;;;;1999.90;999.90;;;;;;;19.54;72.47;100856.28;15670176;28;20401;-57
2021/08/04 01:48:11;;;;;;;1999.90;999.90;;;;;;;19.50;72.86;100853.44;15639200;28;20536;-59
2021/08/04 01:55:44;;;;;;;1999.90;999.90;;;;;;;19.59;73.05;100859.63;15658255;28;20049;-58
2021/08/04 02:03:18;;;;;;;1999.90;999.90;;;;;;;19.51;72.83;100860.72;15671664;28;20559;-58
2021/08/04 02:10:54;;;;;;;1999.90;999.90;;;;;;;19.45;73.18;100859.44;15667953;28;20053;-58
2021/08/04 02:18:31;;;;;;;1999.90;999.90;;;;;;;19.39;73.05;100861.00;15663531;28;20047;-60
2021/08/04 02:26:07;;;;;;;1999.90;999.90;;;;;;;19.22;74.31;100867.31;15689576;28;20134;-59
2021/08/04 02:33:41;;;;;;;1999.90;999.90;;;;;;;19.01;74.88;100860.22;15669337;28;20356;-60
2021/08/04 02:41:15;;;;;;;1999.90;999.90;;;;;;;18.74;76.51;100853.81;15670677;28;20393;-58
2021/08/04 02:48:49;;;;;;;;;;;;;;;18.36;77.62;100851.31;15684389;28;20075;-60
2021/08/04 02:56:21;;;;;;;1999.90;999.90;;;;;;;18.11;79.24;100851.75;15683119;28;20341;-58
2021/08/04 03:03:55;;;;;;;1999.90;999.90;;;;;;;18.12;78.85;100849.72;15683089;28;20079;-58
2021/08/04 03:11:27;;;;;;;1999.90;999.90;;;;;;;18.15;79.71;100855.47;15681647;28;20052;-57
2021/08/04 03:19:01;;;;;;;1999.90;999.90;;;;;;;18.08;80.00;100852.50;15664409;28;20032;-58
2021/08/04 03:26:33;;;;;;;1999.90;999.90;;;;;;;17.86;80.71;100856.22;15664705;28;20140;-59
2021/08/04 03:34:07;;;;;;;1999.90;999.90;;;;;;;17.88;81.73;100851.81;15681220;28;20409;-60
2021/08/04 03:41:39;;;;;;;1999.90;999.90;;;;;;;18.23;80.26;100849.88;15681642;28;20533;-59
2021/08/04 03:49:14;;;;;;;1999.90;999.90;;;;;;;18.01;81.22;100855.22;15664159;28;20041;-60
2021/08/04 03:56:46;;;;;;;1999.90;999.90;;;;;;;17.96;81.54;100869.69;15662201;28;20493;-59
2021/08/04 04:04:19;;;;;;;1999.90;999.90;;;;;;;17.89;81.88;100866.72;15676128;28;20577;-60
2021/08/04 04:11:52;;;;;;;1999.90;999.90;;;;;;;17.87;82.13;100866.31;15671299;28;20073;-59
2021/08/04 04:19:25;;;;;;;1999.90;999.90;;;;;;;17.99;80.97;100863.25;15644662;28;20080;-60
2021/08/04 04:26:57;;;;;;;1999.90;999.90;;;;;;;18.15;80.75;100868.75;15648337;28;20508;-58
2021/08/04 04:34:31;;;;;;;1999.90;999.90;;;;;;;18.30;80.92;100864.94;15678000;28;20538;-60
2021/08/04 04:42:03;;;;;;;1999.90;999.90;;;;;;;18.00;81.44;100881.03;15677067;28;20556;-59
2021/08/04 04:49:38;;;;;;;1999.90;999.90;;;;;;;18.18;80.22;100884.94;15676761;28;20052;-60
2021/08/04 04:57:16;;;;;;;1999.90;999.90;;;;;;;18.50;79.13;100893.88;15676259;28;20041;-60
2021/08/04 05:04:50;;;;;;;1999.90;999.90;;;;;;;18.25;81.55;100902.00;15648367;28;20057;-60
2021/08/04 05:12:22;;;;;;;1999.90;999.90;;;;;;;18.35;81.44;100900.53;15634631;28;20741;-58
2021/08/04 05:19:56;;;;;;;1999.90;999.90;;;;;;;18.60;81.28;100910.16;15668070;28;20045;-59
2021/08/04 05:27:28;;;;;;;1999.90;999.90;;;;;;;18.94;77.96;100924.34;15651736;28;20511;-59
2021/08/04 05:35:02;;;;;;;1999.90;999.90;;;;;;;18.71;79.10;100919.63;15696340;28;20049;-60
2021/08/04 05:42:35;;;;;;;1999.90;999.90;;;;;;;18.90;79.10;100921.47;15673138;28;20045;-59
2021/08/04 05:50:10;;;;;;;1999.90;999.90;;;;;;;18.95;78.60;100929.59;15672353;28;20064;-59
2021/08/04 05:57:43;;;;;;;1999.90;999.90;;;;;;;19.14;79.30;100937.13;15655955;28;20072;-59
2021/08/04 06:05:16;;;;;;;1999.90;999.90;;;;;;;19.40;78.10;100938.22;15674370;28;20065;-59
2021/08/04 06:12:48;;;;;;;1999.90;999.90;;;;;;;19.53;76.69;100951.69;15673239;28;20048;-59
2021/08/04 06:20:22;;;;;;;1999.90;999.90;;;;;;;19.26;77.74;100948.16;15673589;28;20037;-59
2021/08/04 06:27:54;;;;;;;1999.90;999.90;;;;;;;19.46;76.59;100957.28;15659977;28;20112;-59
2021/08/04 06:35:28;;;;;;;1999.90;999.90;;;;;;;19.68;76.00;100954.69;15611427;28;20171;-60
2021/08/04 06:43:00;;;;;;;1999.90;999.90;;;;;;;19.76;75.49;100951.56;15610245;28;20061;-59
2021/08/04 06:50:34;;;;;;;1999.90;999.90;;;;;;;19.72;75.87;100956.38;15592899;28;20077;-58
2021/08/04 06:58:06;;;;;;;1999.90;999.90;;;;;;;19.67;76.95;100951.06;15610436;28;20549;-58
2021/08/04 07:05:40;;;;;;;1999.90;999.90;;;;;;;19.85;75.20;100949.22;15609735;28;20081;-59
2021/08/04 07:13:12;;;;;;;1999.90;999.90;;;;;;;19.85;74.58;100956.88;15609041;28;20053;-59
2021/08/04 07:20:46;;;;;;;1999.90;999.90;;;;;;;20.07;73.22;100961.53;15611418;28;20049;-58
2021/08/04 07:28:18;;;;;;;1999.90;999.90;;;;;;;20.02;72.90;100966.75;15602062;28;20060;-61
2021/08/04 07:35:51;;;;;;;1999.90;999.90;;;;;;;20.28;71.27;100969.38;15663358;28;20052;-60
2021/08/04 07:43:24;;;;;;;1999.90;999.90;;;;;;;20.69;70.43;100972.13;15662539;28;20041;-60
2021/08/04 07:50:58;;;;;;;1999.90;999.90;;;;;;;20.92;69.13;100969.00;15679157;28;20048;-60
2021/08/04 07:58:31;;;;;;;1999.90;999.90;;;;;;;21.03;68.14;100969.88;15680002;28;20107;-61
2021/08/04 08:06:04;;;;;;;1999.90;999.90;;;;;;;21.25;67.67;100965.91;15678351;28;20079;-60
2021/08/04 08:13:37;;;;;;;1999.90;999.90;;;;;;;21.61;67.27;100968.88;15700345;22;20045;-65
2021/08/04 08:21:10;;;;;;;1999.90;999.90;;;;;;;22.01;64.56;100978.28;15654206;28;20049;-66
2021/08/04 08:28:42;;;;;;;1999.90;999.90;;;;;;;22.20;63.75;100977.91;15667869;28;20139;-66
2021/08/04 08:36:16;;;;;;;1999.90;999.90;;;;;;;23.12;60.55;100968.34;15657164;28;20139;-66
2021/08/04 08:43:48;;;;;;;1999.90;999.90;;;;;;;25.40;57.77;100971.31;15656866;28;20143;-65
2021/08/04 08:51:23;;;;;;;1999.90;999.90;;;;;;;24.12;58.73;100951.47;15675389;28;20103;-65
2021/08/04 08:58:57;;;;;;;1999.90;999.90;;;;;;;24.03;56.81;100970.28;15673734;28;20053;-66
2021/08/04 09:06:49;;;;;;;1999.90;999.90;;;;;;;24.10;56.99;100964.53;15673597;28;20128;-66
2021/08/04 09:14:28;;;;;;;1999.90;999.90;;;;;;;24.74;55.65;100966.81;15656546;28;20319;-66
2021/08/04 09:22:15;;;;;;;1999.90;999.90;;;;;;;25.35;52.43;100963.25;15674248;28;20519;-66
2021/08/04 09:48:12;;;;;;;1999.90;999.90;;;;;;;27.00;51.64;100954.34;15653599;28;20090;-67
2021/08/04 09:56:06;;;;;;;1999.90;999.90;;;;;;;25.91;48.57;100958.75;15653855;28;20107;-65
2021/08/04 10:03:58;;;;;;;1999.90;999.90;;;;;;;26.44;49.46;100960.72;15637360;28;20041;-64
2021/08/04 10:11:30;;;;;;;1999.90;999.90;;;;;;;24.60;51.91;100944.94;15653520;28;20076;-67
2021/08/04 10:19:06;;;;;;;1999.90;999.90;;;;;;;24.27;51.79;100949.31;15671588;28;20049;-67
2021/08/04 10:26:40;;;;;;;1999.90;999.90;;;;;;;24.15;50.65;100933.53;15654115;28;20041;-67
2021/08/04 10:34:14;;;;;;;1999.90;999.90;;;;;;;27.52;44.08;100930.72;15653796;28;20362;-66
2021/08/04 10:42:00;;;;;;;1999.90;999.90;;;;;;;25.12;48.59;100936.22;15672290;28;20068;-67
2021/08/04 10:49:35;;;;;;;1999.90;999.90;;;;;;;24.86;48.31;100934.06;15666045;28;20099;-68
2021/08/04 10:57:09;;;;;;;1999.90;999.90;;;;;;;25.08;49.39;100923.19;15676029;28;20049;-67
2021/08/04 11:04:55;;;;;;;1999.90;999.90;;;;;;;24.54;49.18;100923.81;15619031;28;20034;-66
2021/08/04 11:12:48;;;;;;;1999.90;999.90;;;;;;;24.00;48.54;100925.53;15661616;28;20029;-66
2021/08/04 11:20:22;;;;;;;1999.90;999.90;;;;;;;23.65;50.75;100921.72;15647270;28;20325;-67
2021/08/04 11:46:34;;;;;;;1999.90;999.90;;;;;;;25.94;45.17;100925.63;15668490;28;20110;-67
2021/08/04 11:54:08;;;;;;;1999.90;999.90;;;;;;;25.16;44.67;100921.88;15660856;28;20118;-65
2021/08/04 12:01:55;;;;;;;1999.90;999.90;;;;;;;26.26;43.58;100920.19;15678790;28;20052;-65
2021/08/04 12:09:30;;;;;;;1999.90;999.90;;;;;;;25.23;45.85;100918.94;15659414;28;20438;-66
2021/08/04 12:17:04;;;;;;;1999.90;999.90;;;;;;;24.75;46.46;100917.88;15676389;28;20045;-68
2021/08/04 12:24:42;;;;;;;1999.90;999.90;;;;;;;25.11;46.76;100905.19;15673000;28;20449;-67
2021/08/04 12:32:19;;;;;;;1999.90;999.90;;;;;;;24.42;48.52;100904.38;15621962;28;20056;-67
2021/08/04 12:39:53;;;;;;;1999.90;999.90;;;;;;;24.51;46.36;100901.84;15675707;28;20478;-67
2021/08/04 12:47:29;;;;;;;1999.90;999.90;;;;;;;24.81;48.67;100917.41;15673785;28;20527;-67
2021/08/04 12:55:11;;;;;;;1999.90;999.90;;;;;;;24.58;49.67;100910.31;15656756;28;20041;-67
2021/08/04 13:02:45;;;;;;;1999.90;999.90;;;;;;;24.36;50.10;100917.47;15673656;28;20044;-67
2021/08/04 13:10:36;;;;;;;1999.90;999.90;;;;;;;24.94;49.74;100907.03;15656239;28;20074;-67
2021/08/04 13:18:10;;;;;;;1999.90;999.90;;;;;;;24.53;50.06;100901.41;15673007;28;20125;-67
2021/08/04 13:25:56;;;;;;;1999.90;999.90;;;;;;;24.73;50.39;100897.50;15671822;28;20127;-67
2021/08/04 13:33:38;;;;;;;1999.90;999.90;;;;;;;24.77;50.39;100891.75;15652726;28;20056;-66
2021/08/04 13:41:11;;;;;;;1999.90;999.90;;;;;;;24.57;49.00;100887.91;15637737;28;20041;-67
2021/08/04 13:48:47;;;;;;;1999.90;999.90;;;;;;;24.70;49.98;100889.00;15619533;28;20155;-67
2021/08/04 13:56:22;;;;;;;1999.90;999.90;;;;;;;24.58;49.36;100880.97;15626175;28;20112;-66
2021/08/04 14:03:57;;;;;;;1999.90;999.90;;;;;;;24.22;49.39;100886.25;15610639;28;20055;-67
2021/08/04 14:11:49;;;;;;;1999.90;999.90;;;;;;;24.43;50.92;100888.91;15611220;28;20613;-67
2021/08/04 14:19:23;;;;;;;1999.90;999.90;;;;;;;24.45;49.77;100894.97;15681961;23;20053;-60
2021/08/04 14:26:55;;;;;;;1999.90;999.90;;;;;;;24.56;48.12;100883.44;15678295;28;20331;-61
2021/08/04 14:34:30;;;;;;;1999.90;999.90;;;;;;;23.57;54.38;100881.06;15671134;28;20551;-60
2021/08/04 14:42:10;;;;;;;1999.90;999.90;;;;;;;23.31;55.96;100885.31;15689352;28;20037;-63
2021/08/04 14:49:55;;;;;;;1999.90;999.90;;;;;;;22.96;56.88;100871.28;15690186;28;20055;-61
2021/08/04 14:57:28;;;;;;;1999.90;999.90;;;;;;;23.51;56.47;100879.88;15732985;28;20547;-61
2021/08/04 15:05:01;;;;;;;1999.90;999.90;;;;;;;24.13;54.70;100881.81;15733233;28;20114;-62
2021/08/04 15:12:33;;;;;;;1999.90;999.90;;;;;;;24.35;54.01;100864.53;15715698;28;20102;-62
2021/08/04 15:20:09;;;;;;;1999.90;999.90;;;;;;;24.38;52.35;100875.88;15731589;28;20044;-62
2021/08/04 15:27:55;;;;;;;1999.90;999.90;;;;;;;24.84;49.87;100883.09;15749184;28;20489;-62
2021/08/04 15:35:29;;;;;;;1999.90;999.90;;;;;;;24.06;50.26;100881.09;15714450;28;20044;-62
2021/08/04 15:43:10;;;;;;;1999.90;999.90;;;;;;;24.36;49.60;100875.50;15747078;28;20564;-63
2021/08/04 15:51:04;;;;;;;1999.90;999.90;;;;;;;24.67;45.18;100875.56;15721749;28;20037;-63
2021/08/04 15:58:36;;;;;;;1999.90;999.90;;;;;;;24.62;46.04;100868.31;15685471;28;20041;-62
2021/08/04 16:06:09;;;;;;;1999.90;999.90;;;;;;;24.70;45.90;100844.16;15684667;28;20103;-63
2021/08/04 16:13:42;;;;;;;1999.90;999.90;;;;;;;24.51;47.63;100839.09;15654458;28;20049;-62
2021/08/04 16:21:15;;;;;;;1999.90;999.90;;;;;;;24.60;48.80;100839.41;15659928;28;20088;-60
2021/08/04 16:28:48;;;;;;;1999.90;999.90;;;;;;;24.62;49.55;100821.84;15652133;28;20095;-58
2021/08/04 16:36:21;;;;;;;1999.90;999.90;;;;;;;24.23;49.02;100814.53;15666076;28;20075;-60
2021/08/04 16:43:53;;;;;;;1999.90;999.90;;;;;;;24.25;48.81;100817.75;15695775;28;20139;-58
2021/08/04 16:51:27;;;;;;;1999.90;999.90;;;;;;;24.26;49.09;100815.72;15708553;28;20128;-61
2021/08/04 16:59:00;;;;;;;1999.90;999.90;;;;;;;24.16;50.09;100815.41;15645325;28;20045;-61
2021/08/04 17:06:33;;;;;;;1999.90;999.90;;;;;;;23.88;49.88;100827.13;15644370;28;20048;-61
2021/08/04 17:14:07;;;;;;;1999.90;999.90;;;;;;;23.79;50.60;100821.91;15621968;28;20494;-61
2021/08/04 17:21:40;;;;;;;1999.90;999.90;;;;;;;23.81;51.17;100812.94;15639706;28;20053;-62
2021/08/04 17:29:13;;;;;;;1999.90;999.90;;;;;;;23.83;52.41;100813.31;15646644;28;20495;-62
2021/08/04 17:36:47;;;;;;;;;;;;;;;23.72;52.12;100824.00;15673033;28;20405;-61
2021/08/04 17:44:19;;;;;;;1999.90;999.90;;;;;;;23.63;52.43;100815.13;15625479;28;19921;-60
2021/08/04 17:51:53;;;;;;;1999.90;999.90;;;;;;;23.51;53.58;100810.72;15693687;28;20098;-60
2021/08/04 17:59:25;;;;;;;1999.90;999.90;;;;;;;23.19;53.29;100810.97;15609116;28;20041;-60
2021/08/04 18:06:59;;;;;;;1999.90;999.90;;;;;;;23.33;54.51;100814.50;15603202;28;20453;-62
2021/08/04 18:14:31;;;;;;;1999.90;999.90;;;;;;;22.98;54.09;100821.28;15603573;28;20046;-62
2021/08/04 18:22:06;;;;;;;;;;;;;;;23.12;55.82;100817.50;15636958;28;20132;-62
2021/08/04 18:29:41;;;;;;;1999.90;999.90;;;;;;;22.93;57.23;100835.13;15597101;28;21117;-62
2021/08/04 18:37:14;;;;;;;1999.90;999.90;;;;;;;22.85;57.71;100833.56;15629558;28;20052;-59
2021/08/04 18:44:47;;;;;;;1999.90;999.90;;;;;;;22.70;57.88;100832.75;15652888;28;20038;-62
2021/08/04 18:52:21;;;;;;;1999.90;999.90;;;;;;;22.51;58.85;100847.47;15676480;28;20044;-63
2021/08/04 18:59:53;;;;;;;1999.90;999.90;;;;;;;22.29;59.47;100841.84;15701874;28;20077;-63
2021/08/04 19:07:27;;;;;;;;;;;;;;;22.26;60.20;100845.50;15659076;28;20103;-63
2021/08/04 19:14:59;;;;;;;1999.90;999.90;;;;;;;22.05;60.81;100846.34;15693956;28;20293;-63
2021/08/04 19:22:35;;;;;;;1999.90;999.90;;;;;;;21.88;61.15;100833.81;15749166;28;20048;-63
2021/08/04 19:30:10;;;;;;;1999.90;999.90;;;;;;;21.79;61.26;100833.41;15736330;28;20063;-62
2021/08/04 19:37:45;;;;;;;1999.90;999.90;;;;;;;21.55;61.80;100834.19;15673365;28;20055;-63
2021/08/04 19:45:18;;;;;;;1999.90;999.90;;;;;;;21.33;62.64;100839.88;15665700;28;20113;-64
2021/08/04 19:52:55;;;;;;;1999.90;999.90;;;;;;;21.18;63.39;100846.72;15673961;28;20110;-62
2021/08/04 20:00:27;;;;;;;1999.90;999.90;;;;;;;20.92;63.88;100836.50;15666813;28;20101;-63
2021/08/04 20:08:01;;;;;;;1999.90;999.90;;;;;;;20.79;64.26;100852.28;15649776;28;20577;-64
2021/08/04 20:15:35;;;;;;;1999.90;999.90;;;;;;;20.67;64.84;100849.81;15765091;22;20047;-57
2021/08/04 20:23:08;;;;;;;1999.90;999.90;;;;;;;20.58;64.67;100850.16;15720549;28;20454;-57
2021/08/04 20:30:40;;;;;;;1999.90;999.90;;;;;;;20.55;64.11;100845.31;15758041;28;20419;-59
2021/08/04 20:38:14;;;;;;;1999.90;999.90;;;;;;;20.32;63.72;100848.41;15763761;28;20135;-58
2021/08/04 20:45:46;;;;;;;1999.90;999.90;;;;;;;20.39;64.07;100841.94;15723840;28;20056;-59
2021/08/04 20:53:20;;;;;;;1999.90;999.90;;;;;;;20.22;63.92;100846.31;15777868;28;20074;-58
2021/08/04 21:00:55;;;;;;;1999.90;999.90;;;;;;;20.27;63.75;100845.13;15764452;28;20045;-60
2021/08/04 21:08:28;;;;;;;1999.90;999.90;;;;;;;20.10;64.06;100838.94;15752912;28;20123;-58
2021/08/04 21:16:01;;;;;;;1999.90;999.90;;;;;;;20.24;63.58;100831.75;15721858;28;20053;-59
2021/08/04 21:23:34;;;;;;;1999.90;999.90;;;;;;;20.01;64.33;100849.81;15773953;28;20037;-59
2021/08/04 21:31:06;;;;;;;1999.90;999.90;;;;;;;19.84;65.55;100850.50;15760577;28;20059;-59
2021/08/04 21:38:40;;;;;;;1999.90;999.90;;;;;;;19.83;65.60;100852.53;15761339;28;20053;-58
2021/08/04 21:46:12;;;;;;;1999.90;999.90;;;;;;;19.54;66.60;100845.78;15778189;28;20054;-59
2021/08/04 21:53:47;;;;;;;1999.90;999.90;;;;;;;19.54;67.27;100856.28;15756685;28;20139;-57
2021/08/04 22:01:19;;;;;;;1999.90;999.90;;;;;;;19.36;67.92;100841.97;15770347;28;20044;-59
2021/08/04 22:08:52;;;;;;;1999.90;999.90;;;;;;;19.24;68.31;100830.94;15770403;28;20055;-59
2021/08/04 22:16:25;;;;;;;1999.90;999.90;;;;;;;19.01;68.91;100833.94;15746854;28;20037;-58
2021/08/04 22:23:58;;;;;;;1999.90;999.90;;;;;;;19.00;68.65;100833.13;15771190;28;20068;-58
2021/08/04 22:31:31;;;;;;;1999.90;999.90;;;;;;;18.84;68.97;100820.41;15744866;28;20055;-59
2021/08/04 22:39:04;;;;;;;1999.90;999.90;;;;;;;18.54;69.52;100818.41;15763156;28;20138;-61
2021/08/04 22:46:36;;;;;;;1999.90;999.90;;;;;;;18.58;69.99;100822.13;15780261;28;20052;-58
2021/08/04 22:54:10;;;;;;;1999.90;999.90;;;;;;;18.58;70.05;100829.78;15769073;28;20408;-59
2021/08/04 23:01:42;;;;;;;1999.90;999.90;;;;;;;18.39;70.81;100831.56;15792349;28;20533;-58
2021/08/04 23:09:15;;;;;;;1999.90;999.90;;;;;;;18.38;70.85;100824.28;15765305;28;20040;-58
2021/08/04 23:16:47;;;;;;;1999.90;999.90;;;;;;;18.29;70.78;100806.81;15740934;28;20111;-59
2021/08/04 23:24:21;;;;;;;1999.90;999.90;;;;;;;18.35;70.86;100815.78;15759397;28;20102;-57
2021/08/04 23:31:53;;;;;;;1999.90;999.90;;;;;;;18.23;70.89;100810.34;15777529;28;20048;-59
2021/08/04 23:39:26;;;;;;;1999.90;999.90;;;;;;;18.19;71.17;100807.50;15790234;28;20485;-59
2021/08/04 23:47:02;;;;;;;1999.90;999.90;;;;;;;18.12;71.26;100798.91;15776519;28;20072;-58
2021/08/04 23:54:36;;;;;;;1999.90;999.90;;;;;;;18.06;71.19;100804.09;15785737;28;20385;-58
